createdAt,value
2022-12-06T00:00:46.454Z,100.00
2022-12-06T00:01:48.059Z,100.00
2022-12-06T00:02:49.684Z,100.00
2022-12-06T00:03:54.033Z,100.00
2022-12-06T00:04:55.545Z,100.00
2022-12-06T00:06:01.674Z,100.00
2022-12-06T00:07:03.224Z,100.00
2022-12-06T00:08:05.169Z,100.00
2022-12-06T00:09:07.128Z,100.00
2022-12-06T00:10:08.981Z,100.00
2022-12-06T00:11:14.398Z,100.00
2022-12-06T00:12:15.935Z,100.00
2022-12-06T00:13:17.514Z,100.00
2022-12-06T00:14:19.649Z,100.00
2022-12-06T00:15:21.179Z,100.00
2022-12-06T00:16:23.327Z,100.00
2022-12-06T00:17:24.926Z,100.00
2022-12-06T00:18:26.472Z,100.00
2022-12-06T00:19:28.115Z,100.00
2022-12-06T00:20:29.804Z,100.00
2022-12-06T00:21:36.336Z,100.00
2022-12-06T00:22:43.331Z,100.00
2022-12-06T00:23:47.944Z,100.00
2022-12-06T00:24:49.460Z,100.00
2022-12-06T00:25:51.037Z,100.00
2022-12-06T00:26:52.598Z,100.00
2022-12-06T00:27:54.702Z,100.00
2022-12-06T00:28:59.412Z,100.00
2022-12-06T00:30:01.255Z,100.00
2022-12-06T00:31:05.486Z,100.00
2022-12-06T00:32:07.063Z,100.00
2022-12-06T00:33:08.693Z,100.00
2022-12-06T00:34:10.352Z,100.00
2022-12-06T00:35:11.870Z,100.00
2022-12-06T00:36:18.736Z,100.00
2022-12-06T00:37:20.274Z,100.00
2022-12-06T00:38:21.790Z,100.00
2022-12-06T00:39:23.322Z,100.00
2022-12-06T00:40:24.960Z,100.00
2022-12-06T00:41:27.014Z,100.00
2022-12-06T00:42:28.543Z,100.00
2022-12-06T00:43:31.058Z,100.00
2022-12-06T00:44:32.610Z,100.00
2022-12-06T00:45:34.220Z,100.00
2022-12-06T00:46:35.964Z,100.00
2022-12-06T00:47:37.487Z,100.00
2022-12-06T00:48:38.995Z,100.00
2022-12-06T00:49:40.553Z,100.00
2022-12-06T00:50:42.079Z,100.00
2022-12-06T00:51:43.673Z,100.00
2022-12-06T00:52:45.205Z,100.00
2022-12-06T00:53:47.159Z,100.00
2022-12-06T00:54:48.667Z,100.00
2022-12-06T00:55:50.998Z,100.00
2022-12-06T00:56:52.606Z,100.00
2022-12-06T00:57:54.263Z,100.00
2022-12-06T00:58:55.878Z,100.00
2022-12-06T00:59:57.647Z,100.00
2022-12-06T01:01:20.702Z,100.00
2022-12-06T01:02:22.277Z,100.00
2022-12-06T01:03:23.846Z,100.00
2022-12-06T01:04:25.430Z,100.00
2022-12-06T01:05:27.377Z,100.00
2022-12-06T01:06:31.715Z,100.00
2022-12-06T01:07:33.309Z,100.00
2022-12-06T01:08:35.707Z,100.00
2022-12-06T01:09:37.275Z,100.00
2022-12-06T01:10:39.477Z,100.00
2022-12-06T01:11:41.158Z,100.00
2022-12-06T01:12:43.003Z,100.00
2022-12-06T01:13:44.572Z,100.00
2022-12-06T01:14:46.190Z,100.00
2022-12-06T01:15:47.803Z,100.00
2022-12-06T01:16:49.379Z,100.00
2022-12-06T01:17:50.979Z,100.00
2022-12-06T01:18:55.194Z,100.00
2022-12-06T01:19:56.884Z,100.00
2022-12-06T01:21:09.842Z,100.00
2022-12-06T01:22:11.452Z,100.00
2022-12-06T01:23:14.599Z,100.00
2022-12-06T01:24:16.149Z,100.00
2022-12-06T01:25:17.885Z,100.00
2022-12-06T01:26:23.008Z,100.00
2022-12-06T01:27:24.729Z,100.00
2022-12-06T01:28:26.345Z,100.00
2022-12-06T01:29:27.896Z,100.00
2022-12-06T01:30:29.630Z,100.00
2022-12-06T01:31:37.662Z,100.00
2022-12-06T01:32:40.391Z,100.00
2022-12-06T01:33:42.870Z,100.00
2022-12-06T01:34:45.296Z,100.00
2022-12-06T01:35:46.867Z,100.00
2022-12-06T01:36:49.731Z,100.00
2022-12-06T01:37:51.251Z,100.00
2022-12-06T01:38:55.857Z,100.00
2022-12-06T01:39:57.644Z,100.00
2022-12-06T01:40:59.809Z,100.00
2022-12-06T01:42:01.362Z,100.00
2022-12-06T01:43:02.883Z,100.00
2022-12-06T01:44:05.167Z,100.00
2022-12-06T01:45:07.406Z,100.00
2022-12-06T01:46:20.318Z,100.00
2022-12-06T01:47:38.138Z,100.00
2022-12-06T01:48:41.515Z,100.00
2022-12-06T01:49:47.799Z,100.00
2022-12-06T01:50:49.557Z,100.00
2022-12-06T01:52:01.768Z,100.00
2022-12-06T01:53:08.601Z,100.00
2022-12-06T01:54:13.064Z,100.00
2022-12-06T01:55:16.711Z,100.00
2022-12-06T01:56:19.290Z,100.00
2022-12-06T01:57:21.117Z,100.00
2022-12-06T01:58:27.511Z,100.00
2022-12-06T01:59:29.714Z,100.00
2022-12-06T02:00:31.257Z,100.00
2022-12-06T02:01:34.186Z,100.00
2022-12-06T02:02:35.883Z,100.00
2022-12-06T02:03:37.871Z,100.00
2022-12-06T02:04:40.163Z,100.00
2022-12-06T02:05:42.292Z,100.00
2022-12-06T02:06:44.390Z,100.00
2022-12-06T02:07:46.657Z,100.00
2022-12-06T02:08:49.569Z,100.00
2022-12-06T02:09:51.958Z,100.00
2022-12-06T02:10:54.355Z,100.00
2022-12-06T02:11:55.954Z,100.00
2022-12-06T02:12:59.220Z,100.00
2022-12-06T02:14:02.750Z,100.00
2022-12-06T02:15:04.933Z,100.00
2022-12-06T02:16:23.616Z,100.00
2022-12-06T02:17:43.418Z,100.00
2022-12-06T02:19:05.719Z,100.00
2022-12-06T02:20:19.185Z,100.00
2022-12-06T02:21:40.405Z,100.00
2022-12-06T02:23:19.664Z,100.00
2022-12-06T02:24:21.200Z,100.00
2022-12-06T02:25:43.447Z,100.00
2022-12-06T02:26:50.031Z,100.00
2022-12-06T02:28:13.525Z,100.00
2022-12-06T02:29:43.754Z,100.00
2022-12-06T02:30:47.752Z,100.00
2022-12-06T02:31:55.043Z,100.00
2022-12-06T02:32:59.464Z,100.00
2022-12-06T02:34:07.067Z,100.00
2022-12-06T02:35:12.517Z,100.00
2022-12-06T02:36:37.694Z,100.00
2022-12-06T02:37:57.095Z,100.00
2022-12-06T02:39:16.113Z,100.00
2022-12-06T02:40:26.149Z,100.00
2022-12-06T02:41:32.203Z,100.00
2022-12-06T02:42:46.038Z,100.00
2022-12-06T02:43:54.434Z,100.00
2022-12-06T02:45:01.320Z,100.00
2022-12-06T02:46:04.882Z,100.00
2022-12-06T02:47:10.765Z,100.00
2022-12-06T02:48:14.548Z,100.00
2022-12-06T02:49:17.971Z,100.00
2022-12-06T02:50:26.877Z,100.00
2022-12-06T02:51:31.049Z,100.00
2022-12-06T02:52:38.176Z,100.00
2022-12-06T02:53:44.966Z,100.00
2022-12-06T02:54:48.413Z,100.00
2022-12-06T02:55:50.793Z,100.00
2022-12-06T02:56:52.604Z,100.00
2022-12-06T02:57:56.941Z,100.00
2022-12-06T02:58:58.916Z,100.00
2022-12-06T03:00:01.180Z,100.00
2022-12-06T03:01:06.871Z,100.00
2022-12-06T03:02:11.421Z,100.00
2022-12-06T03:03:50.302Z,100.00
2022-12-06T03:04:57.785Z,100.00
2022-12-06T03:06:02.346Z,100.00
2022-12-06T03:07:25.279Z,100.00
2022-12-06T03:09:04.493Z,100.00
2022-12-06T03:10:29.973Z,100.00
2022-12-06T03:11:44.886Z,100.00
2022-12-06T03:13:08.473Z,100.00
2022-12-06T03:14:22.634Z,100.00
2022-12-06T03:15:27.125Z,100.00
2022-12-06T03:16:44.062Z,100.00
2022-12-06T03:17:56.025Z,100.00
2022-12-06T03:19:20.652Z,100.00
2022-12-06T03:20:31.921Z,100.00
2022-12-06T03:21:45.350Z,100.00
2022-12-06T03:22:53.577Z,100.00
2022-12-06T03:23:55.860Z,100.00
2022-12-06T03:24:58.596Z,100.00
2022-12-06T03:26:03.811Z,100.00
2022-12-06T03:27:10.376Z,100.00
2022-12-06T03:28:15.457Z,100.00
2022-12-06T03:29:20.799Z,100.00
2022-12-06T03:30:22.551Z,100.00
2022-12-06T03:31:25.307Z,100.00
2022-12-06T03:32:32.641Z,100.00
2022-12-06T03:33:38.137Z,100.00
2022-12-06T03:34:43.723Z,100.00
2022-12-06T03:35:47.364Z,100.00
2022-12-06T03:36:51.524Z,100.00
2022-12-06T03:38:03.221Z,100.00
2022-12-06T03:39:07.938Z,100.00
2022-12-06T03:40:25.625Z,100.00
2022-12-06T03:41:31.217Z,100.00
2022-12-06T03:42:33.724Z,100.00
2022-12-06T03:43:35.344Z,100.00
2022-12-06T03:44:37.776Z,100.00
2022-12-06T03:45:46.728Z,100.00
2022-12-06T03:46:53.054Z,100.00
2022-12-06T03:48:29.829Z,100.00
2022-12-06T03:49:41.003Z,100.00
2022-12-06T03:50:54.208Z,100.00
2022-12-06T03:51:59.320Z,100.00
2022-12-06T03:53:01.604Z,100.00
2022-12-06T03:54:05.458Z,100.00
2022-12-06T03:55:07.656Z,100.00
2022-12-06T03:56:09.192Z,100.00
2022-12-06T03:57:10.977Z,100.00
2022-12-06T03:58:12.938Z,100.00
2022-12-06T03:59:14.485Z,100.00
2022-12-06T04:00:16.719Z,100.00
2022-12-06T04:01:18.617Z,100.00
2022-12-06T04:02:20.196Z,100.00
2022-12-06T04:03:21.811Z,100.00
2022-12-06T04:04:24.720Z,100.00
2022-12-06T04:05:26.255Z,100.00
2022-12-06T04:06:27.812Z,100.00
2022-12-06T04:07:29.466Z,100.00
2022-12-06T04:08:31.294Z,100.00
2022-12-06T04:09:51.403Z,100.00
2022-12-06T04:10:52.907Z,100.00
2022-12-06T04:11:54.482Z,100.00
2022-12-06T04:13:02.222Z,100.00
2022-12-06T04:14:03.811Z,100.00
2022-12-06T04:15:06.748Z,100.00
2022-12-06T04:16:29.066Z,100.00
2022-12-06T04:17:49.185Z,100.00
2022-12-06T04:18:50.687Z,100.00
2022-12-06T04:19:52.383Z,100.00
2022-12-06T04:21:18.613Z,100.00
2022-12-06T04:22:38.385Z,100.00
2022-12-06T04:23:41.706Z,100.00
2022-12-06T04:24:43.693Z,100.00
2022-12-06T04:25:45.362Z,100.00
2022-12-06T04:26:47.127Z,100.00
2022-12-06T04:28:06.946Z,100.00
2022-12-06T04:29:26.781Z,100.00
2022-12-06T04:30:46.836Z,100.00
2022-12-06T04:32:06.692Z,100.00
2022-12-06T04:33:26.523Z,100.00
2022-12-06T04:34:46.906Z,100.00
2022-12-06T04:36:06.925Z,100.00
2022-12-06T04:37:27.667Z,100.00
2022-12-06T04:38:44.752Z,100.00
2022-12-06T04:39:46.945Z,100.00
2022-12-06T04:40:48.517Z,100.00
2022-12-06T04:42:08.968Z,100.00
2022-12-06T04:43:29.315Z,100.00
2022-12-06T04:44:30.890Z,100.00
2022-12-06T04:45:32.463Z,100.00
2022-12-06T04:46:34.611Z,100.00
2022-12-06T04:47:36.338Z,100.00
2022-12-06T04:48:38.559Z,100.00
2022-12-06T04:49:40.101Z,100.00
2022-12-06T04:50:48.026Z,100.00
2022-12-06T04:51:49.593Z,100.00
2022-12-06T04:52:51.657Z,100.00
2022-12-06T04:53:53.239Z,100.00
2022-12-06T04:54:54.785Z,100.00
2022-12-06T04:55:56.502Z,100.00
2022-12-06T04:56:58.876Z,100.00
2022-12-06T04:58:00.388Z,100.00
2022-12-06T04:59:03.449Z,100.00
2022-12-06T05:00:07.578Z,100.00
2022-12-06T05:01:09.753Z,100.00
2022-12-06T05:02:14.144Z,100.00
2022-12-06T05:03:15.695Z,100.00
2022-12-06T05:04:17.386Z,100.00
2022-12-06T05:05:19.003Z,100.00
2022-12-06T05:06:20.930Z,100.00
2022-12-06T05:07:22.513Z,100.00
2022-12-06T05:08:24.211Z,100.00
2022-12-06T05:09:25.843Z,100.00
2022-12-06T05:10:27.489Z,100.00
2022-12-06T05:11:29.050Z,100.00
2022-12-06T05:12:30.576Z,100.00
2022-12-06T05:13:32.179Z,100.00
2022-12-06T05:14:33.906Z,100.00
2022-12-06T05:15:35.485Z,100.00
2022-12-06T05:16:37.211Z,100.00
2022-12-06T05:17:38.828Z,100.00
2022-12-06T05:18:40.601Z,100.00
2022-12-06T05:19:42.124Z,100.00
2022-12-06T05:20:43.686Z,100.00
2022-12-06T05:21:45.218Z,100.00
2022-12-06T05:22:46.877Z,100.00
2022-12-06T05:23:49.192Z,100.00
2022-12-06T05:24:51.765Z,100.00
2022-12-06T05:25:58.766Z,100.00
2022-12-06T05:27:00.280Z,100.00
2022-12-06T05:28:01.842Z,100.00
2022-12-06T05:29:03.926Z,100.00
2022-12-06T05:30:06.555Z,100.00
2022-12-06T05:31:08.310Z,100.00
2022-12-06T05:32:09.827Z,100.00
2022-12-06T05:33:11.353Z,100.00
2022-12-06T05:34:12.906Z,100.00
2022-12-06T05:35:14.496Z,100.00
2022-12-06T05:36:21.755Z,100.00
2022-12-06T05:37:24.083Z,100.00
2022-12-06T05:38:26.020Z,100.00
2022-12-06T05:39:27.677Z,100.00
2022-12-06T05:40:29.296Z,100.00
2022-12-06T05:41:30.884Z,100.00
2022-12-06T05:42:32.424Z,100.00
2022-12-06T05:43:34.536Z,100.00
2022-12-06T05:44:36.134Z,100.00
2022-12-06T05:45:38.804Z,100.00
2022-12-06T05:46:40.486Z,100.00
2022-12-06T05:47:42.135Z,100.00
2022-12-06T05:48:44.238Z,99.00
2022-12-06T05:49:45.750Z,97.83
2022-12-06T05:50:48.210Z,97.60
2022-12-06T05:51:49.738Z,96.50
2022-12-06T05:52:55.752Z,97.70
2022-12-06T05:53:57.361Z,98.56
2022-12-06T05:54:59.050Z,98.19
2022-12-06T05:56:09.286Z,98.54
2022-12-06T05:57:11.221Z,99.24
2022-12-06T05:58:13.135Z,99.15
2022-12-06T05:59:14.694Z,98.96
2022-12-06T06:00:17.593Z,98.13
2022-12-06T06:01:19.148Z,98.92
2022-12-06T06:02:20.818Z,99.18
2022-12-06T06:03:22.459Z,99.71
2022-12-06T06:04:23.998Z,100.00
2022-12-06T06:05:25.597Z,100.00
2022-12-06T06:06:27.403Z,100.00
2022-12-06T06:07:29.609Z,100.00
2022-12-06T06:08:31.500Z,100.00
2022-12-06T06:09:33.066Z,100.00
2022-12-06T06:10:34.641Z,100.00
2022-12-06T06:11:36.133Z,100.00
2022-12-06T06:12:37.858Z,100.00
2022-12-06T06:13:39.386Z,100.00
2022-12-06T06:14:40.919Z,100.00
2022-12-06T06:15:42.560Z,100.00
2022-12-06T06:16:44.184Z,100.00
2022-12-06T06:17:45.754Z,100.00
2022-12-06T06:18:47.827Z,100.00
2022-12-06T06:19:51.555Z,100.00
2022-12-06T06:20:58.239Z,100.00
2022-12-06T06:21:59.761Z,100.00
2022-12-06T06:23:01.509Z,100.00
2022-12-06T06:24:03.207Z,100.00
2022-12-06T06:25:06.178Z,100.00
2022-12-06T06:26:12.567Z,100.00
2022-12-06T06:27:14.687Z,100.00
2022-12-06T06:28:17.101Z,100.00
2022-12-06T06:29:18.632Z,100.00
2022-12-06T06:30:20.229Z,100.00
2022-12-06T06:31:22.282Z,100.00
2022-12-06T06:32:23.898Z,100.00
2022-12-06T06:33:25.409Z,100.00
2022-12-06T06:34:27.010Z,100.00
2022-12-06T06:35:29.530Z,100.00
2022-12-06T06:36:31.080Z,100.00
2022-12-06T06:37:33.067Z,100.00
2022-12-06T06:38:34.653Z,100.00
2022-12-06T06:39:36.428Z,100.00
2022-12-06T06:40:38.465Z,100.00
2022-12-06T06:41:40.697Z,100.00
2022-12-06T06:42:43.156Z,100.00
2022-12-06T06:43:46.148Z,100.00
2022-12-06T06:44:47.801Z,100.00
2022-12-06T06:45:52.456Z,100.00
2022-12-06T06:46:54.087Z,100.00
2022-12-06T06:47:55.602Z,100.00
2022-12-06T06:48:57.312Z,100.00
2022-12-06T06:49:59.256Z,100.00
2022-12-06T06:51:06.346Z,100.00
2022-12-06T06:52:07.969Z,100.00
2022-12-06T06:53:09.559Z,100.00
2022-12-06T06:54:12.601Z,100.00
2022-12-06T06:55:14.237Z,100.00
2022-12-06T06:56:15.863Z,100.00
2022-12-06T06:57:18.477Z,100.00
2022-12-06T06:58:20.029Z,100.00
2022-12-06T06:59:22.376Z,100.00
2022-12-06T07:00:24.333Z,100.00
2022-12-06T07:01:27.400Z,100.00
2022-12-06T07:02:29.081Z,100.00
2022-12-06T07:03:30.731Z,100.00
2022-12-06T07:04:32.338Z,100.00
2022-12-06T07:05:33.865Z,100.00
2022-12-06T07:06:35.379Z,100.00
2022-12-06T07:07:37.463Z,100.00
2022-12-06T07:08:41.551Z,100.00
2022-12-06T07:09:43.227Z,100.00
2022-12-06T07:10:48.671Z,100.00
2022-12-06T07:11:50.233Z,100.00
2022-12-06T07:12:52.074Z,100.00
2022-12-06T07:13:53.564Z,99.70
2022-12-06T07:14:55.377Z,100.00
2022-12-06T07:15:58.348Z,100.00
2022-12-06T07:17:00.008Z,99.74
2022-12-06T07:18:01.641Z,100.00
2022-12-06T07:19:08.852Z,100.00
2022-12-06T07:20:10.999Z,100.00
2022-12-06T07:21:14.782Z,100.00
2022-12-06T07:22:16.417Z,100.00
2022-12-06T07:23:17.957Z,100.00
2022-12-06T07:24:19.551Z,100.00
2022-12-06T07:25:21.061Z,100.00
2022-12-06T07:26:23.859Z,100.00
2022-12-06T07:27:25.481Z,99.39
2022-12-06T07:28:27.093Z,99.42
2022-12-06T07:29:28.624Z,99.48
2022-12-06T07:30:30.428Z,99.60
2022-12-06T07:31:33.796Z,98.97
2022-12-06T07:32:37.000Z,99.47
2022-12-06T07:33:39.429Z,98.39
2022-12-06T07:34:40.953Z,98.80
2022-12-06T07:36:10.797Z,98.80
2022-12-06T07:37:06.505Z,97.09
2022-12-06T07:38:08.019Z,97.22
2022-12-06T07:39:14.555Z,98.71
2022-12-06T07:40:19.201Z,99.52
2022-12-06T07:41:43.738Z,100.00
2022-12-06T07:43:03.701Z,100.00
2022-12-06T07:44:24.102Z,100.00
2022-12-06T07:45:25.802Z,100.00
2022-12-06T07:46:27.457Z,100.00
2022-12-06T07:47:37.291Z,100.00
2022-12-06T07:48:39.177Z,100.00
2022-12-06T07:49:40.753Z,99.14
2022-12-06T07:50:42.260Z,99.83
2022-12-06T07:51:47.775Z,100.00
2022-12-06T07:52:50.933Z,99.32
2022-12-06T07:53:52.487Z,98.62
2022-12-06T07:54:54.058Z,97.64
2022-12-06T07:55:55.621Z,97.90
2022-12-06T07:56:57.305Z,98.00
2022-12-06T07:57:58.866Z,98.48
2022-12-06T07:59:01.634Z,96.98
2022-12-06T08:00:05.248Z,97.80
2022-12-06T08:01:06.844Z,96.10
2022-12-06T08:02:17.604Z,96.47
2022-12-06T08:03:19.149Z,97.93
2022-12-06T08:04:20.771Z,97.94
2022-12-06T08:05:22.372Z,97.80
2022-12-06T08:06:23.924Z,98.89
2022-12-06T08:07:26.558Z,97.94
2022-12-06T08:08:29.064Z,98.19
2022-12-06T08:09:31.012Z,98.84
2022-12-06T08:10:32.759Z,98.06
2022-12-06T08:11:34.974Z,96.02
2022-12-06T08:12:36.535Z,96.68
2022-12-06T08:13:38.521Z,94.00
2022-12-06T08:14:40.139Z,95.49
2022-12-06T08:15:41.769Z,96.77
2022-12-06T08:16:43.299Z,95.36
2022-12-06T08:17:45.382Z,95.35
2022-12-06T08:18:47.102Z,95.25
2022-12-06T08:19:48.881Z,95.63
2022-12-06T08:20:51.113Z,95.41
2022-12-06T08:21:52.718Z,94.89
2022-12-06T08:22:54.270Z,93.69
2022-12-06T08:23:55.851Z,91.58
2022-12-06T08:24:57.376Z,92.60
2022-12-06T08:26:03.459Z,93.98
2022-12-06T08:27:05.019Z,94.02
2022-12-06T08:28:06.632Z,93.75
2022-12-06T08:29:08.255Z,93.08
2022-12-06T08:30:09.938Z,92.40
2022-12-06T08:31:18.350Z,92.87
2022-12-06T08:32:20.025Z,92.21
2022-12-06T08:33:24.643Z,93.06
2022-12-06T08:34:26.206Z,91.70
2022-12-06T08:35:27.944Z,90.28
2022-12-06T08:36:29.639Z,90.29
2022-12-06T08:37:31.146Z,90.78
2022-12-06T08:38:32.654Z,91.45
2022-12-06T08:39:34.207Z,90.14
2022-12-06T08:40:35.814Z,92.08
2022-12-06T08:41:55.431Z,92.96
2022-12-06T08:42:56.989Z,92.05
2022-12-06T08:44:00.851Z,92.22
2022-12-06T08:45:02.427Z,91.07
2022-12-06T08:46:04.027Z,90.67
2022-12-06T08:47:05.781Z,89.80
2022-12-06T08:48:07.421Z,92.59
2022-12-06T08:49:09.804Z,92.56
2022-12-06T08:50:11.662Z,91.14
2022-12-06T08:51:13.219Z,91.37
2022-12-06T08:52:14.794Z,92.07
2022-12-06T08:53:16.360Z,90.82
2022-12-06T08:54:21.761Z,91.12
2022-12-06T08:55:23.305Z,89.67
2022-12-06T08:56:25.395Z,89.72
2022-12-06T08:57:27.005Z,88.70
2022-12-06T08:58:28.549Z,88.69
2022-12-06T08:59:30.317Z,88.50
2022-12-06T09:00:31.875Z,87.41
2022-12-06T09:01:37.739Z,85.18
2022-12-06T09:02:40.411Z,86.68
2022-12-06T09:03:42.057Z,86.75
2022-12-06T09:04:43.654Z,87.56
2022-12-06T09:05:45.218Z,86.84
2022-12-06T09:06:46.915Z,85.24
2022-12-06T09:07:48.507Z,85.21
2022-12-06T09:08:50.224Z,84.91
2022-12-06T09:09:54.679Z,85.15
2022-12-06T09:10:56.242Z,86.07
2022-12-06T09:11:57.849Z,84.23
2022-12-06T09:12:59.415Z,84.57
2022-12-06T09:14:01.034Z,85.38
2022-12-06T09:15:02.603Z,86.37
2022-12-06T09:16:12.185Z,83.87
2022-12-06T09:17:13.832Z,85.44
2022-12-06T09:18:15.434Z,86.28
2022-12-06T09:19:17.627Z,84.90
2022-12-06T09:20:19.847Z,85.11
2022-12-06T09:21:24.418Z,84.97
2022-12-06T09:22:25.934Z,82.46
2022-12-06T09:23:27.564Z,83.82
2022-12-06T09:24:29.062Z,82.79
2022-12-06T09:25:30.613Z,83.41
2022-12-06T09:26:32.652Z,84.42
2022-12-06T09:27:34.161Z,84.96
2022-12-06T09:28:37.950Z,83.99
2022-12-06T09:29:40.943Z,83.69
2022-12-06T09:30:42.682Z,83.43
2022-12-06T09:31:44.316Z,84.38
2022-12-06T09:32:45.994Z,83.87
2022-12-06T09:33:47.915Z,83.61
2022-12-06T09:34:49.481Z,83.37
2022-12-06T09:35:51.986Z,81.52
2022-12-06T09:37:02.251Z,82.97
2022-12-06T09:38:05.018Z,82.46
2022-12-06T09:39:14.305Z,82.36
2022-12-06T09:40:24.554Z,82.09
2022-12-06T09:41:56.587Z,82.37
2022-12-06T09:43:19.084Z,83.01
2022-12-06T09:44:38.774Z,83.57
2022-12-06T09:45:47.017Z,82.86
2022-12-06T09:47:08.267Z,83.01
2022-12-06T09:48:28.332Z,82.48
2022-12-06T09:49:31.821Z,82.46
2022-12-06T09:50:36.406Z,82.47
2022-12-06T09:52:01.855Z,82.40
2022-12-06T09:53:21.690Z,81.73
2022-12-06T09:54:57.260Z,81.49
2022-12-06T09:56:47.614Z,83.17
2022-12-06T09:57:54.841Z,82.38
2022-12-06T09:59:17.750Z,81.95
2022-12-06T10:00:23.271Z,81.02
2022-12-06T10:01:37.214Z,79.40
2022-12-06T10:02:44.629Z,79.14
2022-12-06T10:04:12.379Z,80.26
2022-12-06T10:05:34.995Z,80.15
2022-12-06T10:06:48.735Z,80.07
2022-12-06T10:07:53.181Z,80.39
2022-12-06T10:09:03.630Z,81.38
2022-12-06T10:10:33.470Z,79.74
2022-12-06T10:11:56.370Z,79.23
2022-12-06T10:13:07.452Z,79.26
2022-12-06T10:14:41.856Z,78.13
2022-12-06T10:16:26.529Z,79.10
2022-12-06T10:17:54.739Z,81.44
2022-12-06T10:19:02.275Z,78.86
2022-12-06T10:20:22.560Z,78.92
2022-12-06T10:21:50.486Z,79.33
2022-12-06T10:23:10.615Z,79.07
2022-12-06T10:24:12.100Z,78.14
2022-12-06T10:25:17.657Z,79.14
2022-12-06T10:26:38.277Z,78.73
2022-12-06T10:27:58.288Z,77.46
2022-12-06T10:29:17.670Z,77.39
2022-12-06T10:30:19.601Z,77.68
2022-12-06T10:31:54.593Z,79.09
2022-12-06T10:33:07.197Z,78.29
2022-12-06T10:34:21.635Z,80.09
2022-12-06T10:35:44.676Z,80.37
2022-12-06T10:37:00.962Z,80.81
2022-12-06T10:38:08.910Z,82.04
2022-12-06T10:39:20.026Z,79.99
2022-12-06T10:40:42.903Z,78.88
2022-12-06T10:41:50.593Z,79.92
2022-12-06T10:43:15.037Z,81.64
2022-12-06T10:44:32.367Z,80.58
2022-12-06T10:46:10.392Z,80.65
2022-12-06T10:47:16.697Z,80.92
2022-12-06T10:48:29.546Z,79.93
2022-12-06T10:49:59.147Z,78.25
2022-12-06T10:51:25.897Z,79.35
2022-12-06T10:52:41.466Z,78.77
2022-12-06T10:53:49.041Z,76.82
2022-12-06T10:55:10.170Z,77.67
2022-12-06T10:56:27.026Z,78.47
2022-12-06T10:57:41.254Z,77.79
2022-12-06T10:58:51.485Z,78.70
2022-12-06T11:00:03.948Z,80.26
2022-12-06T11:01:28.531Z,80.39
2022-12-06T11:02:57.930Z,79.67
2022-12-06T11:04:07.472Z,77.75
2022-12-06T11:05:24.595Z,78.50
2022-12-06T11:06:33.691Z,78.02
2022-12-06T11:07:41.976Z,77.19
2022-12-06T11:08:54.527Z,78.10
2022-12-06T11:09:57.404Z,78.48
2022-12-06T11:11:00.800Z,78.47
2022-12-06T11:12:16.558Z,76.63
2022-12-06T11:13:35.552Z,77.05
2022-12-06T11:14:43.301Z,77.53
2022-12-06T11:15:58.930Z,77.46
2022-12-06T11:17:24.551Z,76.72
2022-12-06T11:18:29.435Z,75.28
2022-12-06T11:19:43.418Z,77.82
2022-12-06T11:20:51.576Z,77.11
2022-12-06T11:22:00.323Z,76.27
2022-12-06T11:23:13.823Z,77.61
2022-12-06T11:24:41.824Z,77.11
2022-12-06T11:26:04.781Z,77.10
2022-12-06T11:27:31.976Z,77.39
2022-12-06T11:28:42.204Z,77.60
2022-12-06T11:29:47.498Z,76.54
2022-12-06T11:30:52.808Z,77.01
2022-12-06T11:31:59.462Z,77.53
2022-12-06T11:33:02.177Z,78.62
2022-12-06T11:34:09.302Z,78.81
2022-12-06T11:35:28.963Z,76.83
2022-12-06T11:36:31.274Z,78.87
2022-12-06T11:37:34.235Z,79.12
2022-12-06T11:38:39.718Z,79.79
2022-12-06T11:39:41.286Z,78.13
2022-12-06T11:40:46.647Z,78.21
2022-12-06T11:41:54.426Z,78.32
2022-12-06T11:42:58.924Z,78.35
2022-12-06T11:44:00.756Z,78.08
2022-12-06T11:45:15.623Z,77.99
2022-12-06T11:46:17.411Z,76.66
2022-12-06T11:47:22.189Z,78.04
2022-12-06T11:48:26.658Z,78.32
2022-12-06T11:49:34.336Z,78.13
2022-12-06T11:50:36.695Z,77.72
2022-12-06T11:51:38.195Z,78.63
2022-12-06T11:52:48.587Z,79.58
2022-12-06T11:54:11.711Z,77.65
2022-12-06T11:55:24.137Z,78.97
2022-12-06T11:56:29.209Z,79.79
2022-12-06T11:57:37.193Z,78.90
2022-12-06T11:58:45.546Z,79.56
2022-12-06T12:00:20.605Z,79.06
2022-12-06T12:01:57.004Z,79.20
2022-12-06T12:02:58.777Z,77.85
2022-12-06T12:04:30.341Z,78.56
2022-12-06T12:05:38.833Z,78.33
2022-12-06T12:06:40.434Z,78.08
2022-12-06T12:07:44.132Z,79.05
2022-12-06T12:08:56.683Z,79.81
2022-12-06T12:10:04.368Z,79.70
2022-12-06T12:11:06.781Z,79.42
2022-12-06T12:12:16.506Z,80.24
2022-12-06T12:13:39.934Z,79.07
2022-12-06T12:14:47.937Z,78.30
2022-12-06T12:15:53.188Z,78.20
2022-12-06T12:17:00.031Z,78.16
2022-12-06T12:18:03.465Z,77.01
2022-12-06T12:19:24.454Z,77.94
2022-12-06T12:20:32.220Z,77.74
2022-12-06T12:21:38.415Z,78.40
2022-12-06T12:22:45.562Z,77.81
2022-12-06T12:23:47.669Z,78.23
2022-12-06T12:25:18.051Z,78.29
2022-12-06T12:26:21.973Z,79.36
2022-12-06T12:27:32.480Z,78.93
2022-12-06T12:28:35.611Z,78.96
2022-12-06T12:29:37.255Z,78.97
2022-12-06T12:30:52.802Z,78.70
2022-12-06T12:31:58.872Z,79.13
2022-12-06T12:33:06.489Z,79.24
2022-12-06T12:34:25.959Z,78.39
2022-12-06T12:35:30.927Z,78.85
2022-12-06T12:36:32.644Z,78.37
2022-12-06T12:37:37.513Z,79.09
2022-12-06T12:38:52.258Z,78.04
2022-12-06T12:39:54.437Z,78.49
2022-12-06T12:41:01.856Z,77.82
2022-12-06T12:42:04.431Z,78.09
2022-12-06T12:43:16.409Z,77.92
2022-12-06T12:44:39.258Z,77.60
2022-12-06T12:46:10.152Z,77.41
2022-12-06T12:47:14.526Z,76.78
2022-12-06T12:48:24.899Z,77.25
2022-12-06T12:49:38.536Z,78.10
2022-12-06T12:50:52.872Z,78.14
2022-12-06T12:51:55.098Z,77.37
2022-12-06T12:52:57.041Z,77.71
2022-12-06T12:54:04.797Z,77.71
2022-12-06T12:55:15.587Z,78.50
2022-12-06T12:56:20.115Z,77.58
2022-12-06T12:57:21.726Z,77.07
2022-12-06T12:58:23.238Z,76.08
2022-12-06T12:59:27.474Z,76.82
2022-12-06T13:00:35.227Z,77.13
2022-12-06T13:01:52.073Z,77.03
2022-12-06T13:03:48.899Z,77.72
2022-12-06T13:05:32.663Z,77.12
2022-12-06T13:06:32.688Z,78.31
2022-12-06T13:07:36.509Z,77.62
2022-12-06T13:08:39.219Z,77.07
2022-12-06T13:10:16.074Z,76.79
2022-12-06T13:11:17.627Z,75.69
2022-12-06T13:12:26.426Z,76.27
2022-12-06T13:13:43.308Z,75.55
2022-12-06T13:14:52.687Z,76.50
2022-12-06T13:15:56.839Z,76.50
2022-12-06T13:17:03.250Z,75.85
2022-12-06T13:18:12.830Z,75.96
2022-12-06T13:19:18.848Z,75.32
2022-12-06T13:20:33.754Z,74.84
2022-12-06T13:21:40.104Z,75.82
2022-12-06T13:22:45.377Z,75.44
2022-12-06T13:23:52.585Z,75.13
2022-12-06T13:25:06.487Z,75.11
2022-12-06T13:26:20.293Z,75.75
2022-12-06T13:27:23.879Z,74.81
2022-12-06T13:28:33.758Z,75.60
2022-12-06T13:29:37.990Z,76.34
2022-12-06T13:30:41.875Z,75.16
2022-12-06T13:31:44.236Z,75.97
2022-12-06T13:32:51.967Z,75.60
2022-12-06T13:34:22.480Z,76.63
2022-12-06T13:35:28.332Z,75.98
2022-12-06T13:36:34.654Z,75.93
2022-12-06T13:37:45.561Z,75.86
2022-12-06T13:38:47.497Z,76.23
2022-12-06T13:39:49.951Z,76.52
2022-12-06T13:40:54.027Z,76.66
2022-12-06T13:42:18.873Z,76.17
2022-12-06T13:43:23.323Z,76.93
2022-12-06T13:44:54.362Z,76.13
2022-12-06T13:46:26.371Z,76.79
2022-12-06T13:47:27.964Z,76.30
2022-12-06T13:48:47.821Z,77.27
2022-12-06T13:49:49.343Z,76.64
2022-12-06T13:50:56.954Z,77.91
2022-12-06T13:51:58.778Z,76.82
2022-12-06T13:53:02.230Z,76.95
2022-12-06T13:54:03.772Z,76.97
2022-12-06T13:55:24.146Z,77.41
2022-12-06T13:56:43.848Z,77.70
2022-12-06T13:57:45.404Z,78.08
2022-12-06T13:58:53.526Z,77.97
2022-12-06T13:59:55.291Z,77.78
2022-12-06T14:00:57.490Z,77.96
2022-12-06T14:02:00.954Z,78.92
2022-12-06T14:03:18.175Z,78.25
2022-12-06T14:08:13.161Z,78.91
2022-12-06T14:09:14.952Z,78.79
2022-12-06T14:10:16.523Z,78.89